createdAt,value
2023-01-21T00:00:59.829Z,14.65
2023-01-21T00:03:27.089Z,15.68
2023-01-21T00:05:54.602Z,15.52
2023-01-21T00:08:21.576Z,13.98
2023-01-21T00:10:48.910Z,12.75
2023-01-21T00:13:16.311Z,12.82
2023-01-21T00:15:43.432Z,12.27
2023-01-21T00:18:10.397Z,12.43
2023-01-21T00:20:37.683Z,16.08
2023-01-21T00:23:04.948Z,13.00
2023-01-21T00:25:31.690Z,15.82
2023-01-21T00:27:59.885Z,15.95
2023-01-21T00:30:27.086Z,15.00
2023-01-21T00:32:54.108Z,17.20
2023-01-21T00:35:20.975Z,14.85
2023-01-21T00:37:47.958Z,16.20
2023-01-21T00:40:15.180Z,11.88
2023-01-21T00:42:42.327Z,16.38
2023-01-21T00:45:10.068Z,15.10
2023-01-21T00:47:37.024Z,18.92
2023-01-21T00:50:04.811Z,18.48
2023-01-21T00:52:31.555Z,16.80
2023-01-21T00:54:58.461Z,19.02
2023-01-21T00:57:25.479Z,20.38
2023-01-21T00:59:53.560Z,24.60
2023-01-21T01:02:20.690Z,23.33
2023-01-21T01:04:47.799Z,24.38
2023-01-21T01:07:14.821Z,30.13
2023-01-21T01:09:41.743Z,26.40
2023-01-21T01:12:08.766Z,25.98
2023-01-21T01:14:36.522Z,24.45
2023-01-21T01:17:03.428Z,30.80
2023-01-21T01:19:30.183Z,28.50
2023-01-21T01:21:57.532Z,28.08
2023-01-21T01:24:24.475Z,27.00
2023-01-21T01:26:51.689Z,25.17
2023-01-21T01:29:18.899Z,23.77
2023-01-21T01:31:45.945Z,25.67
2023-01-21T01:34:12.910Z,20.45
2023-01-21T01:36:40.191Z,25.75
2023-01-21T01:39:07.673Z,24.52
2023-01-21T01:41:35.530Z,21.45
2023-01-21T01:44:05.039Z,19.63
2023-01-21T01:46:36.341Z,22.25
2023-01-21T01:49:15.379Z,19.50
2023-01-21T01:51:48.931Z,20.70
2023-01-21T01:54:20.078Z,21.75
2023-01-21T01:56:50.582Z,21.42
2023-01-21T02:01:45.004Z,19.70
2023-01-21T02:04:16.248Z,20.10
2023-01-21T02:06:43.059Z,19.55
2023-01-21T02:09:10.107Z,18.80
2023-01-21T02:11:37.518Z,18.92
2023-01-21T02:14:04.838Z,17.77
2023-01-21T02:16:31.798Z,13.50
2023-01-21T02:19:23.512Z,15.93
2023-01-21T02:22:02.436Z,14.65
2023-01-21T02:24:48.020Z,14.38
2023-01-21T02:27:37.139Z,16.42
2023-01-21T02:30:38.174Z,16.00
2023-01-21T02:33:09.695Z,13.60
2023-01-21T02:35:47.674Z,16.83
2023-01-21T02:38:31.325Z,11.68
2023-01-21T02:41:36.884Z,14.90
2023-01-21T02:44:10.327Z,11.95
2023-01-21T02:46:52.507Z,11.63
2023-01-21T02:49:25.219Z,12.02
2023-01-21T02:51:52.382Z,13.50
2023-01-21T02:54:41.196Z,10.68
2023-01-21T02:57:12.909Z,11.63
2023-01-21T02:59:40.757Z,11.50
2023-01-21T03:02:38.824Z,11.23
2023-01-21T03:05:17.812Z,9.85
2023-01-21T03:07:54.856Z,10.82
2023-01-21T03:10:55.439Z,11.48
2023-01-21T03:13:48.008Z,8.77
2023-01-21T03:16:35.483Z,6.55
2023-01-21T03:19:05.852Z,8.18
2023-01-21T03:24:00.149Z,11.95
2023-01-21T03:26:35.932Z,6.28
2023-01-21T03:29:10.197Z,8.30
2023-01-21T03:31:38.452Z,10.52
2023-01-21T03:34:07.488Z,8.38
2023-01-21T03:36:57.791Z,10.77
2023-01-21T03:42:04.024Z,7.75
2023-01-21T03:44:31.337Z,7.85
2023-01-21T03:47:23.605Z,7.28
2023-01-21T03:49:57.443Z,7.65
2023-01-21T03:52:25.905Z,7.22
2023-01-21T03:54:53.514Z,8.93
2023-01-21T03:57:20.718Z,10.15
2023-01-21T03:59:47.624Z,13.23
2023-01-21T04:02:20.108Z,14.63
2023-01-21T04:04:47.854Z,13.60
2023-01-21T04:07:15.982Z,16.50
2023-01-21T04:09:42.966Z,16.13
2023-01-21T04:12:10.644Z,15.63
2023-01-21T04:14:38.113Z,18.60
2023-01-21T04:17:05.151Z,15.65
2023-01-21T04:19:31.948Z,15.23
2023-01-21T04:21:58.931Z,16.23
2023-01-21T04:24:26.279Z,16.27
2023-01-21T04:26:53.715Z,12.05
2023-01-21T04:29:23.333Z,10.98
2023-01-21T04:31:50.713Z,10.35
2023-01-21T04:34:17.388Z,7.47
2023-01-21T04:36:44.547Z,8.35
2023-01-21T04:39:11.658Z,8.48
2023-01-21T04:41:38.744Z,8.05
2023-01-21T04:44:05.839Z,8.52
2023-01-21T04:46:33.109Z,7.72
2023-01-21T04:48:59.911Z,8.98
2023-01-21T04:51:26.853Z,9.63
2023-01-21T04:53:53.819Z,10.95
2023-01-21T04:56:20.815Z,11.05
2023-01-21T04:58:47.695Z,9.13
2023-01-21T05:01:14.700Z,13.70
2023-01-21T05:03:41.565Z,8.75
2023-01-21T05:06:08.707Z,11.18
2023-01-21T05:08:36.005Z,8.55
2023-01-21T05:11:03.088Z,12.48
2023-01-21T05:13:30.111Z,8.90
2023-01-21T05:16:03.151Z,8.13
2023-01-21T05:18:29.949Z,9.40
2023-01-21T05:20:57.671Z,9.07
2023-01-21T05:23:24.549Z,9.35
2023-01-21T05:25:51.538Z,9.48
2023-01-21T05:28:18.626Z,15.70
2023-01-21T05:30:46.702Z,9.35
2023-01-21T05:33:13.684Z,14.77
2023-01-21T05:35:40.498Z,16.95
2023-01-21T05:38:07.618Z,19.13
2023-01-21T05:40:34.583Z,17.20
2023-01-21T05:43:01.360Z,18.10
2023-01-21T05:45:28.463Z,19.60
2023-01-21T05:47:55.618Z,21.15
2023-01-21T05:50:22.487Z,24.65
2023-01-21T05:52:49.521Z,24.88
2023-01-21T05:55:16.556Z,21.55
2023-01-21T05:57:43.366Z,20.08
2023-01-21T06:00:11.195Z,25.42
2023-01-21T06:02:39.247Z,25.10
2023-01-21T06:05:06.893Z,25.20
2023-01-21T06:07:34.106Z,22.40
2023-01-21T06:10:01.169Z,24.55
2023-01-21T06:12:29.636Z,25.10
2023-01-21T06:14:56.609Z,22.60
2023-01-21T06:17:23.651Z,25.52
2023-01-21T06:19:50.625Z,26.45
2023-01-21T06:22:18.638Z,30.80
2023-01-21T06:24:45.831Z,25.77
2023-01-21T06:27:14.118Z,30.58
2023-01-21T06:29:42.288Z,25.08
2023-01-21T06:32:09.210Z,30.88
2023-01-21T06:34:36.196Z,29.27
2023-01-21T06:37:03.575Z,29.65
2023-01-21T06:39:30.292Z,35.63
2023-01-21T06:41:57.207Z,34.78
2023-01-21T06:44:24.255Z,29.17
2023-01-21T06:47:05.504Z,33.95
2023-01-21T06:49:32.540Z,31.17
2023-01-21T06:51:59.626Z,35.22
2023-01-21T06:54:29.438Z,30.73
2023-01-21T06:56:57.446Z,30.65
2023-01-21T06:59:24.532Z,30.45
2023-01-21T07:01:51.656Z,26.58
2023-01-21T07:04:18.463Z,30.27
2023-01-21T07:06:46.064Z,29.67
2023-01-21T07:09:13.012Z,31.70
2023-01-21T07:11:39.893Z,33.10
2023-01-21T07:14:06.792Z,25.38
2023-01-21T07:16:33.812Z,35.88
2023-01-21T07:19:00.953Z,34.33
2023-01-21T07:21:27.852Z,32.67
2023-01-21T07:23:54.847Z,33.20
2023-01-21T07:26:22.304Z,34.83
2023-01-21T07:28:49.273Z,40.67
2023-01-21T07:31:16.345Z,40.88
2023-01-21T07:33:43.242Z,42.13
2023-01-21T07:36:10.686Z,47.20
2023-01-21T07:38:37.665Z,47.80
2023-01-21T07:41:04.774Z,34.97
2023-01-21T07:43:31.776Z,37.42
2023-01-21T07:46:00.226Z,39.25
2023-01-21T07:48:27.426Z,33.35
2023-01-21T07:50:58.571Z,32.08
2023-01-21T07:53:25.884Z,32.28
2023-01-21T07:55:53.074Z,34.90
2023-01-21T07:58:20.228Z,34.30
2023-01-21T08:00:47.437Z,33.78
2023-01-21T08:03:14.386Z,28.13
2023-01-21T08:05:41.109Z,23.90
2023-01-21T08:08:08.062Z,27.75
2023-01-21T08:10:34.875Z,28.58
2023-01-21T08:13:03.685Z,31.45
2023-01-21T08:15:30.425Z,30.27
2023-01-21T08:17:57.077Z,35.50
2023-01-21T08:20:24.109Z,29.88
2023-01-21T08:22:51.771Z,27.30
2023-01-21T08:25:18.937Z,23.90
2023-01-21T08:27:45.866Z,24.52
2023-01-21T08:30:13.855Z,25.10
2023-01-21T08:32:40.850Z,27.33
2023-01-21T08:35:08.346Z,19.45
2023-01-21T08:37:35.319Z,29.50
2023-01-21T08:40:03.088Z,26.30
2023-01-21T08:42:30.046Z,26.45
2023-01-21T08:44:56.800Z,27.60
2023-01-21T08:47:23.704Z,25.70
2023-01-21T08:49:50.577Z,24.02
2023-01-21T08:52:17.639Z,29.75
2023-01-21T08:54:44.532Z,24.08
2023-01-21T08:57:11.986Z,27.08
2023-01-21T08:59:39.065Z,24.67
2023-01-21T09:02:06.132Z,23.27
2023-01-21T09:04:33.189Z,27.98
2023-01-21T09:07:00.262Z,28.98
2023-01-21T09:09:27.214Z,27.60
2023-01-21T09:11:54.159Z,28.63
2023-01-21T09:14:21.717Z,23.75
2023-01-21T09:16:49.560Z,20.05
2023-01-21T09:19:16.791Z,29.02
2023-01-21T09:21:44.106Z,24.88
2023-01-21T09:24:10.879Z,26.15
2023-01-21T09:26:37.959Z,28.23
2023-01-21T09:29:04.944Z,21.02
2023-01-21T09:31:32.011Z,22.00
2023-01-21T09:34:01.357Z,21.85
2023-01-21T09:36:30.654Z,23.88
2023-01-21T09:38:57.702Z,18.38
2023-01-21T09:41:40.589Z,23.27
2023-01-21T09:44:22.467Z,29.80
2023-01-21T09:47:09.721Z,19.58
2023-01-21T09:49:41.632Z,21.15
2023-01-21T09:52:14.187Z,24.35
2023-01-21T09:54:41.569Z,22.67
2023-01-21T09:57:13.970Z,21.70
2023-01-21T09:59:43.709Z,20.77
2023-01-21T10:02:28.092Z,18.23
2023-01-21T10:05:11.026Z,20.77
2023-01-21T10:07:43.557Z,26.00
2023-01-21T10:10:30.798Z,19.83
2023-01-21T10:13:16.438Z,20.08
2023-01-21T10:15:49.676Z,17.30
2023-01-21T10:18:24.198Z,25.27
2023-01-21T10:20:57.728Z,23.13
2023-01-21T10:23:34.314Z,23.23
2023-01-21T10:26:07.480Z,19.73
2023-01-21T10:28:34.549Z,26.15
2023-01-21T10:31:16.599Z,20.35
2023-01-21T10:33:45.008Z,16.20
2023-01-21T10:36:23.942Z,21.83
2023-01-21T10:39:12.743Z,22.48
2023-01-21T10:41:48.821Z,21.17
2023-01-21T10:44:29.829Z,17.80
2023-01-21T10:47:32.073Z,18.15
2023-01-21T10:50:36.447Z,12.40
2023-01-21T10:53:05.735Z,17.45
2023-01-21T10:55:46.502Z,19.70
2023-01-21T10:58:28.915Z,17.40
2023-01-21T11:00:59.055Z,16.40
2023-01-21T11:03:34.133Z,19.48
2023-01-21T11:06:04.381Z,18.42
2023-01-21T11:10:59.936Z,15.60
2023-01-21T11:13:27.146Z,13.23
2023-01-21T11:15:56.130Z,20.70
2023-01-21T11:18:26.473Z,14.40
2023-01-21T11:23:39.255Z,20.50
2023-01-21T11:26:16.239Z,16.02
2023-01-21T11:28:43.017Z,20.08
2023-01-21T11:31:14.946Z,14.73
2023-01-21T11:33:43.355Z,17.35
2023-01-21T11:36:16.545Z,15.13
2023-01-21T11:38:47.460Z,15.68
2023-01-21T11:41:23.054Z,13.65
2023-01-21T11:43:54.932Z,17.05
2023-01-21T11:46:27.478Z,17.73
2023-01-21T11:49:09.399Z,19.38
2023-01-21T11:51:40.513Z,17.98
2023-01-21T11:54:23.541Z,20.90
2023-01-21T11:56:58.551Z,16.08
2023-01-21T11:59:35.830Z,18.42
2023-01-21T12:02:23.428Z,19.83
2023-01-21T12:05:03.426Z,17.13
2023-01-21T12:07:36.519Z,15.27
2023-01-21T12:10:07.472Z,16.55
2023-01-21T12:12:58.237Z,20.05
2023-01-21T12:15:39.394Z,17.38
2023-01-21T12:18:27.921Z,19.75
2023-01-21T12:20:58.432Z,15.57
2023-01-21T12:23:43.025Z,19.77
2023-01-21T12:26:45.386Z,16.00
2023-01-21T12:29:47.070Z,16.27
2023-01-21T12:32:23.764Z,16.25
2023-01-21T12:34:55.464Z,15.27
2023-01-21T12:37:27.400Z,14.77
2023-01-21T12:39:56.309Z,14.95
2023-01-21T12:42:29.278Z,21.92
2023-01-21T12:45:00.798Z,15.85
2023-01-21T12:47:32.634Z,17.15
2023-01-21T12:50:41.234Z,17.08
2023-01-21T12:53:21.241Z,15.38
2023-01-21T12:56:04.159Z,18.75
2023-01-21T12:58:35.412Z,16.17
2023-01-21T13:01:07.687Z,17.73
2023-01-21T13:03:46.451Z,18.55
2023-01-21T13:06:38.007Z,13.50
2023-01-21T13:09:22.212Z,17.13
2023-01-21T13:11:58.852Z,16.92
2023-01-21T13:14:34.287Z,13.80
2023-01-21T13:17:07.055Z,18.73
2023-01-21T13:19:33.951Z,16.95
2023-01-21T13:22:27.925Z,17.73
2023-01-21T13:25:10.103Z,15.25
2023-01-21T13:28:02.097Z,12.50
2023-01-21T13:31:10.647Z,16.52
2023-01-21T13:33:53.489Z,13.02
2023-01-21T13:36:38.837Z,14.10
2023-01-21T13:39:17.410Z,16.80
2023-01-21T13:42:15.358Z,12.40
2023-01-21T13:45:11.882Z,14.15
2023-01-21T13:47:38.544Z,14.50
2023-01-21T13:50:21.118Z,10.52
2023-01-21T13:53:33.601Z,11.60
2023-01-21T13:56:12.916Z,11.25
2023-01-21T13:58:48.226Z,15.77
2023-01-21T14:01:20.373Z,13.68
2023-01-21T14:03:56.702Z,10.43
2023-01-21T14:06:28.747Z,11.68
2023-01-21T14:09:00.276Z,12.70
2023-01-21T14:11:35.992Z,10.45
2023-01-21T14:14:31.117Z,14.48
2023-01-21T14:17:36.982Z,15.20
2023-01-21T14:20:23.631Z,14.43
2023-01-21T14:23:24.498Z,17.02
2023-01-21T14:26:07.797Z,12.73
2023-01-21T14:28:52.508Z,14.00
2023-01-21T14:31:23.063Z,11.70
2023-01-21T14:34:03.558Z,11.77
2023-01-21T14:36:51.126Z,10.95
2023-01-21T14:39:30.660Z,11.35
2023-01-21T14:42:04.521Z,10.73
2023-01-21T14:44:41.661Z,12.43
2023-01-21T14:47:22.897Z,9.82
2023-01-21T14:49:54.294Z,13.73
2023-01-21T14:52:28.333Z,11.68
2023-01-21T14:54:55.328Z,12.23
2023-01-21T14:57:26.947Z,11.75
2023-01-21T15:00:02.046Z,11.77
2023-01-21T15:02:34.831Z,11.82
2023-01-21T15:05:18.738Z,9.68
2023-01-21T15:07:47.572Z,16.45
2023-01-21T15:10:35.627Z,12.73
2023-01-21T15:13:06.704Z,14.50
2023-01-21T15:15:37.098Z,13.18
2023-01-21T15:18:24.630Z,11.85
2023-01-21T15:20:57.812Z,12.02
2023-01-21T15:23:31.133Z,12.85
2023-01-21T15:26:07.401Z,13.73
2023-01-21T15:28:56.522Z,12.15
2023-01-21T15:31:23.808Z,10.45
2023-01-21T15:33:52.654Z,13.30
2023-01-21T15:36:24.895Z,12.68
2023-01-21T15:39:02.010Z,11.13
2023-01-21T15:41:43.174Z,9.75
2023-01-21T15:44:17.402Z,12.25
2023-01-21T15:46:50.823Z,12.85
2023-01-21T15:49:40.143Z,10.57
2023-01-21T15:52:13.546Z,11.90
2023-01-21T15:55:17.122Z,12.63
2023-01-21T15:58:11.339Z,12.45
2023-01-21T16:00:46.636Z,11.52
2023-01-21T16:03:34.688Z,12.95
2023-01-21T16:06:28.246Z,11.45
2023-01-21T16:09:08.931Z,12.88
2023-01-21T16:11:59.925Z,14.85
2023-01-21T16:14:44.326Z,11.80
2023-01-21T16:17:21.255Z,12.85
2023-01-21T16:19:52.316Z,11.57
2023-01-21T16:22:23.188Z,12.45
2023-01-21T16:24:54.654Z,9.55
2023-01-21T16:27:28.302Z,12.68
2023-01-21T16:30:00.136Z,10.77
2023-01-21T16:32:27.774Z,13.35
2023-01-21T16:34:54.730Z,15.25
2023-01-21T16:37:24.327Z,13.13
2023-01-21T16:39:56.373Z,14.65
2023-01-21T16:42:36.220Z,12.05
2023-01-21T16:45:18.876Z,12.43
2023-01-21T16:47:47.398Z,12.45
2023-01-21T16:50:19.643Z,14.43
2023-01-21T16:52:46.898Z,12.45
2023-01-21T16:55:26.010Z,12.88
2023-01-21T16:57:55.207Z,15.65
2023-01-21T17:00:30.988Z,12.38
2023-01-21T17:02:58.978Z,13.52
2023-01-21T17:05:29.486Z,14.60
2023-01-21T17:07:59.963Z,13.95
2023-01-21T17:10:39.978Z,16.02
2023-01-21T17:13:13.571Z,16.58
2023-01-21T17:15:42.650Z,12.18
2023-01-21T17:18:22.923Z,12.02
2023-01-21T17:23:31.308Z,13.77
2023-01-21T17:28:39.341Z,14.02
2023-01-21T17:31:16.113Z,15.10
2023-01-21T17:33:44.256Z,13.55
2023-01-21T17:36:16.115Z,15.93
2023-01-21T17:38:45.353Z,14.52
2023-01-21T17:41:23.764Z,21.00
2023-01-21T17:43:52.085Z,16.13
2023-01-21T17:46:23.054Z,18.35
2023-01-21T17:48:53.472Z,19.77
2023-01-21T17:51:23.324Z,17.77
2023-01-21T17:53:59.460Z,18.35
2023-01-21T17:57:02.126Z,17.00
2023-01-21T17:59:34.431Z,17.73
2023-01-21T18:02:10.174Z,21.00
2023-01-21T18:04:37.163Z,18.80
2023-01-21T18:07:14.959Z,17.90
2023-01-21T18:09:43.086Z,16.73
2023-01-21T18:12:11.585Z,20.00
2023-01-21T18:14:38.501Z,17.38
2023-01-21T18:17:05.302Z,20.35
2023-01-21T18:19:37.117Z,20.52
2023-01-21T18:22:06.094Z,19.85
2023-01-21T18:24:33.206Z,16.98
2023-01-21T18:27:01.033Z,16.63
2023-01-21T18:29:30.393Z,15.85
2023-01-21T18:31:58.431Z,17.30
2023-01-21T18:34:26.530Z,15.50
2023-01-21T18:36:53.439Z,13.68
2023-01-21T18:39:20.874Z,14.05
2023-01-21T18:41:48.029Z,17.27
2023-01-21T18:44:16.295Z,15.13
2023-01-21T18:46:43.761Z,13.65
2023-01-21T18:49:19.266Z,15.43
2023-01-21T18:51:47.051Z,15.18
2023-01-21T18:54:15.226Z,12.10
2023-01-21T18:56:42.851Z,15.68
2023-01-21T18:59:14.794Z,17.05
2023-01-21T19:01:42.382Z,15.13
2023-01-21T19:04:13.091Z,17.05
2023-01-21T19:06:40.183Z,19.65
2023-01-21T19:09:24.317Z,17.20
2023-01-21T19:11:51.742Z,14.32
2023-01-21T19:14:19.028Z,14.52
2023-01-21T19:16:46.270Z,17.98
2023-01-21T19:19:15.893Z,14.20
2023-01-21T19:21:43.084Z,17.85
2023-01-21T19:24:12.248Z,17.25
2023-01-21T19:26:39.781Z,17.60
2023-01-21T19:29:13.401Z,16.67
2023-01-21T19:31:40.545Z,17.42
2023-01-21T19:34:09.203Z,22.17
2023-01-21T19:36:36.709Z,18.95
2023-01-21T19:39:03.736Z,19.90
2023-01-21T19:41:31.214Z,17.30
2023-01-21T19:43:58.158Z,17.45
2023-01-21T19:46:28.772Z,26.80
2023-01-21T19:48:55.900Z,19.63
2023-01-21T19:51:23.202Z,20.58
2023-01-21T19:53:50.640Z,19.65
2023-01-21T19:56:23.283Z,18.63
2023-01-21T19:58:50.492Z,21.45
2023-01-21T20:01:17.664Z,17.70
2023-01-21T20:03:58.461Z,16.75
2023-01-21T20:06:26.289Z,16.67
2023-01-21T20:08:53.602Z,14.88
2023-01-21T20:11:22.036Z,16.40
2023-01-21T20:13:49.155Z,14.23
2023-01-21T20:16:18.717Z,14.50
2023-01-21T20:18:46.229Z,18.45
2023-01-21T20:21:13.031Z,19.88
2023-01-21T20:23:39.954Z,22.45
2023-01-21T20:26:17.004Z,20.13
2023-01-21T20:28:47.902Z,19.63
2023-01-21T20:31:15.057Z,18.42
2023-01-21T20:33:43.965Z,17.73
2023-01-21T20:36:20.252Z,20.65
2023-01-21T20:38:47.543Z,18.98
2023-01-21T20:41:14.523Z,18.88
2023-01-21T20:43:41.468Z,17.00
2023-01-21T20:46:20.654Z,16.50
2023-01-21T20:48:47.952Z,20.40
2023-01-21T20:51:14.885Z,19.38
2023-01-21T20:53:41.779Z,16.85
2023-01-21T20:56:18.548Z,15.75
2023-01-21T20:58:47.973Z,17.88
2023-01-21T21:01:15.952Z,17.50
2023-01-21T21:03:43.110Z,16.10
2023-01-21T21:06:14.044Z,15.93
2023-01-21T21:08:41.497Z,14.60
2023-01-21T21:11:08.762Z,16.67
2023-01-21T21:13:36.152Z,15.98
2023-01-21T21:16:31.584Z,13.70
2023-01-21T21:18:59.351Z,17.23
2023-01-21T21:21:26.608Z,14.30
2023-01-21T21:23:53.624Z,14.75
2023-01-21T21:26:23.095Z,15.63
2023-01-21T21:28:50.866Z,21.15
2023-01-21T21:31:18.533Z,16.98
2023-01-21T21:33:45.739Z,18.60
2023-01-21T21:36:17.263Z,17.63
2023-01-21T21:38:46.123Z,14.02
2023-01-21T21:41:37.357Z,11.98
2023-01-21T21:44:05.316Z,12.70
2023-01-21T21:47:11.082Z,10.73
2023-01-21T21:49:38.066Z,11.15
2023-01-21T21:52:04.951Z,13.02
2023-01-21T21:54:31.902Z,24.83
2023-01-21T21:56:58.816Z,13.55
2023-01-21T21:59:26.719Z,12.95
2023-01-21T22:01:54.213Z,13.43
2023-01-21T22:04:22.324Z,15.60
2023-01-21T22:06:49.505Z,12.32
2023-01-21T22:09:16.473Z,13.05
2023-01-21T22:11:43.506Z,9.95
2023-01-21T22:14:10.603Z,12.07
2023-01-21T22:16:37.666Z,13.93
2023-01-21T22:19:04.822Z,14.15
2023-01-21T22:21:33.547Z,8.10
2023-01-21T22:24:01.994Z,9.82
2023-01-21T22:26:29.951Z,10.07
2023-01-21T22:28:57.398Z,9.80
2023-01-21T22:31:26.455Z,17.52
2023-01-21T22:33:54.061Z,11.90
2023-01-21T22:36:23.060Z,11.40
2023-01-21T22:38:50.681Z,13.20
2023-01-21T22:41:19.747Z,14.48
2023-01-21T22:43:50.250Z,10.77
2023-01-21T22:46:19.659Z,12.35
2023-01-21T22:48:46.800Z,12.57
2023-01-21T22:51:15.795Z,12.18
2023-01-21T22:53:46.177Z,11.90
2023-01-21T22:56:14.844Z,12.55
2023-01-21T22:58:41.791Z,11.43
2023-01-21T23:01:09.578Z,10.10
2023-01-21T23:03:37.217Z,13.95
2023-01-21T23:06:08.491Z,15.55
2023-01-21T23:08:38.697Z,14.38
2023-01-21T23:11:07.568Z,12.50
2023-01-21T23:13:35.352Z,15.55
2023-01-21T23:16:06.213Z,16.30
2023-01-21T23:18:34.789Z,15.63
2023-01-21T23:21:09.031Z,15.20
2023-01-21T23:23:37.916Z,17.83
2023-01-21T23:26:06.191Z,16.73
2023-01-21T23:28:33.851Z,8.50
2023-01-21T23:31:08.808Z,13.18
2023-01-21T23:33:35.937Z,13.00
2023-01-21T23:36:02.994Z,11.05
2023-01-21T23:38:29.702Z,13.25
2023-01-21T23:40:57.148Z,9.07
2023-01-21T23:43:27.596Z,10.25
2023-01-21T23:45:54.847Z,13.77
2023-01-21T23:48:22.407Z,14.27
2023-01-21T23:50:49.487Z,9.43
2023-01-21T23:53:16.872Z,14.98
2023-01-21T23:55:44.875Z,20.83
2023-01-21T23:58:11.767Z,18.50
